sensor_id;sensor_type;location;lat;lon;timestamp;P1;durP1;ratioP1;P2;durP2;ratioP2
4909;SDS011;2470;49.868;8.660;2023-06-22T00:02:13;6.32;;;3.95;;
4909;SDS011;2470;49.868;8.660;2023-06-22T00:04:38;5.40;;;3.42;;
4909;SDS011;2470;49.868;8.660;2023-06-22T00:07:04;4.22;;;3.45;;
4909;SDS011;2470;49.868;8.660;2023-06-22T00:09:30;4.93;;;3.40;;
4909;SDS011;2470;49.868;8.660;2023-06-22T00:11:56;6.20;;;3.95;;
4909;SDS011;2470;49.868;8.660;2023-06-22T00:14:21;5.10;;;4.13;;
4909;SDS011;2470;49.868;8.660;2023-06-22T00:16:47;6.15;;;4.07;;
4909;SDS011;2470;49.868;8.660;2023-06-22T00:19:13;7.28;;;3.72;;
4909;SDS011;2470;49.868;8.660;2023-06-22T00:21:40;6.45;;;4.68;;
4909;SDS011;2470;49.868;8.660;2023-06-22T00:24:05;6.53;;;4.05;;
4909;SDS011;2470;49.868;8.660;2023-06-22T00:26:31;5.72;;;3.13;;
4909;SDS011;2470;49.868;8.660;2023-06-22T00:28:57;5.32;;;3.72;;
4909;SDS011;2470;49.868;8.660;2023-06-22T00:31:22;6.53;;;4.65;;
4909;SDS011;2470;49.868;8.660;2023-06-22T00:33:48;4.85;;;4.00;;
4909;SDS011;2470;49.868;8.660;2023-06-22T00:36:15;4.65;;;3.28;;
4909;SDS011;2470;49.868;8.660;2023-06-22T00:38:44;5.65;;;4.03;;
4909;SDS011;2470;49.868;8.660;2023-06-22T00:41:09;5.68;;;3.92;;
4909;SDS011;2470;49.868;8.660;2023-06-22T00:43:35;5.45;;;3.42;;
4909;SDS011;2470;49.868;8.660;2023-06-22T00:46:00;5.82;;;3.80;;
4909;SDS011;2470;49.868;8.660;2023-06-22T00:48:26;3.60;;;3.25;;
4909;SDS011;2470;49.868;8.660;2023-06-22T00:50:52;3.95;;;3.55;;
4909;SDS011;2470;49.868;8.660;2023-06-22T00:53:20;9.60;;;4.60;;
4909;SDS011;2470;49.868;8.660;2023-06-22T00:55:46;5.10;;;3.50;;
4909;SDS011;2470;49.868;8.660;2023-06-22T00:58:12;7.22;;;4.60;;
4909;SDS011;2470;49.868;8.660;2023-06-22T01:00:39;7.00;;;4.88;;
4909;SDS011;2470;49.868;8.660;2023-06-22T01:03:06;6.50;;;4.13;;
4909;SDS011;2470;49.868;8.660;2023-06-22T01:05:34;6.78;;;5.07;;
4909;SDS011;2470;49.868;8.660;2023-06-22T01:08:16;8.00;;;4.55;;
4909;SDS011;2470;49.868;8.660;2023-06-22T01:13:41;12.98;;;4.65;;
4909;SDS011;2470;49.868;8.660;2023-06-22T01:16:23;8.52;;;5.22;;
4909;SDS011;2470;49.868;8.660;2023-06-22T01:18:52;6.90;;;3.85;;
4909;SDS011;2470;49.868;8.660;2023-06-22T01:21:20;8.50;;;4.82;;
4909;SDS011;2470;49.868;8.660;2023-06-22T01:23:50;7.57;;;4.30;;
4909;SDS011;2470;49.868;8.660;2023-06-22T01:29:38;7.22;;;4.72;;
4909;SDS011;2470;49.868;8.660;2023-06-22T01:32:05;6.20;;;4.53;;
4909;SDS011;2470;49.868;8.660;2023-06-22T01:34:31;7.75;;;4.75;;
4909;SDS011;2470;49.868;8.660;2023-06-22T01:36:58;7.60;;;4.65;;
4909;SDS011;2470;49.868;8.660;2023-06-22T01:39:25;6.82;;;4.63;;
4909;SDS011;2470;49.868;8.660;2023-06-22T01:41:52;7.47;;;4.70;;
4909;SDS011;2470;49.868;8.660;2023-06-22T01:44:19;7.50;;;4.95;;
4909;SDS011;2470;49.868;8.660;2023-06-22T01:46:46;7.95;;;4.53;;
4909;SDS011;2470;49.868;8.660;2023-06-22T01:49:14;8.98;;;4.68;;
4909;SDS011;2470;49.868;8.660;2023-06-22T01:51:40;7.60;;;4.82;;
4909;SDS011;2470;49.868;8.660;2023-06-22T01:54:06;8.52;;;5.32;;
4909;SDS011;2470;49.868;8.660;2023-06-22T01:56:33;7.47;;;4.38;;
4909;SDS011;2470;49.868;8.660;2023-06-22T01:59:01;4.85;;;3.80;;
4909;SDS011;2470;49.868;8.660;2023-06-22T02:01:57;10.88;;;5.15;;
4909;SDS011;2470;49.868;8.660;2023-06-22T02:04:36;6.55;;;4.78;;
4909;SDS011;2470;49.868;8.660;2023-06-22T02:07:09;7.45;;;4.63;;
4909;SDS011;2470;49.868;8.660;2023-06-22T02:09:38;8.95;;;5.00;;
4909;SDS011;2470;49.868;8.660;2023-06-22T02:12:08;7.53;;;5.03;;
4909;SDS011;2470;49.868;8.660;2023-06-22T02:14:36;8.85;;;5.05;;
4909;SDS011;2470;49.868;8.660;2023-06-22T02:17:02;6.70;;;4.57;;
4909;SDS011;2470;49.868;8.660;2023-06-22T02:19:32;7.20;;;4.63;;
4909;SDS011;2470;49.868;8.660;2023-06-22T02:22:01;8.43;;;4.90;;
4909;SDS011;2470;49.868;8.660;2023-06-22T02:24:26;7.18;;;5.10;;
4909;SDS011;2470;49.868;8.660;2023-06-22T02:26:57;7.50;;;5.30;;
4909;SDS011;2470;49.868;8.660;2023-06-22T02:29:23;8.70;;;5.53;;
4909;SDS011;2470;49.868;8.660;2023-06-22T02:31:48;7.50;;;4.88;;
4909;SDS011;2470;49.868;8.660;2023-06-22T02:34:14;7.78;;;5.32;;
4909;SDS011;2470;49.868;8.660;2023-06-22T02:36:43;6.97;;;4.43;;
4909;SDS011;2470;49.868;8.660;2023-06-22T02:39:22;7.63;;;4.43;;
4909;SDS011;2470;49.868;8.660;2023-06-22T02:41:49;6.45;;;4.35;;
4909;SDS011;2470;49.868;8.660;2023-06-22T02:44:16;7.35;;;5.43;;
4909;SDS011;2470;49.868;8.660;2023-06-22T02:46:42;7.13;;;4.75;;
4909;SDS011;2470;49.868;8.660;2023-06-22T02:49:07;7.05;;;4.03;;
4909;SDS011;2470;49.868;8.660;2023-06-22T02:51:33;8.10;;;4.38;;
4909;SDS011;2470;49.868;8.660;2023-06-22T02:53:59;5.97;;;4.32;;
4909;SDS011;2470;49.868;8.660;2023-06-22T02:56:25;8.10;;;5.00;;
4909;SDS011;2470;49.868;8.660;2023-06-22T02:58:51;8.00;;;5.10;;
4909;SDS011;2470;49.868;8.660;2023-06-22T03:01:16;9.32;;;5.38;;
4909;SDS011;2470;49.868;8.660;2023-06-22T03:03:48;8.00;;;4.93;;
4909;SDS011;2470;49.868;8.660;2023-06-22T03:06:14;11.23;;;5.57;;
4909;SDS011;2470;49.868;8.660;2023-06-22T03:08:40;8.63;;;5.18;;
4909;SDS011;2470;49.868;8.660;2023-06-22T03:11:06;9.05;;;5.88;;
4909;SDS011;2470;49.868;8.660;2023-06-22T03:13:32;8.23;;;5.53;;
4909;SDS011;2470;49.868;8.660;2023-06-22T03:15:58;8.35;;;5.38;;
4909;SDS011;2470;49.868;8.660;2023-06-22T03:18:23;7.50;;;5.35;;
4909;SDS011;2470;49.868;8.660;2023-06-22T03:20:49;8.02;;;5.10;;
4909;SDS011;2470;49.868;8.660;2023-06-22T03:23:15;8.13;;;5.13;;
4909;SDS011;2470;49.868;8.660;2023-06-22T03:25:40;9.45;;;6.22;;
4909;SDS011;2470;49.868;8.660;2023-06-22T03:28:09;6.90;;;4.68;;
4909;SDS011;2470;49.868;8.660;2023-06-22T03:30:35;7.82;;;5.20;;
4909;SDS011;2470;49.868;8.660;2023-06-22T03:33:00;5.95;;;3.78;;
4909;SDS011;2470;49.868;8.660;2023-06-22T03:35:26;6.88;;;4.60;;
4909;SDS011;2470;49.868;8.660;2023-06-22T03:37:51;7.47;;;4.97;;
4909;SDS011;2470;49.868;8.660;2023-06-22T03:40:17;6.93;;;4.35;;
4909;SDS011;2470;49.868;8.660;2023-06-22T03:42:42;12.27;;;5.10;;
4909;SDS011;2470;49.868;8.660;2023-06-22T03:45:08;8.65;;;4.60;;
4909;SDS011;2470;49.868;8.660;2023-06-22T03:47:34;7.20;;;4.60;;
4909;SDS011;2470;49.868;8.660;2023-06-22T03:50:00;7.05;;;4.68;;
4909;SDS011;2470;49.868;8.660;2023-06-22T03:52:25;9.00;;;5.68;;
4909;SDS011;2470;49.868;8.660;2023-06-22T03:54:51;8.88;;;4.78;;
4909;SDS011;2470;49.868;8.660;2023-06-22T03:57:16;7.80;;;5.55;;
4909;SDS011;2470;49.868;8.660;2023-06-22T03:59:42;8.70;;;5.60;;
4909;SDS011;2470;49.868;8.660;2023-06-22T04:02:07;9.48;;;4.95;;
4909;SDS011;2470;49.868;8.660;2023-06-22T04:04:33;8.05;;;5.43;;
4909;SDS011;2470;49.868;8.660;2023-06-22T04:07:00;6.90;;;5.10;;
4909;SDS011;2470;49.868;8.660;2023-06-22T04:09:25;8.73;;;5.28;;
4909;SDS011;2470;49.868;8.660;2023-06-22T04:11:51;8.38;;;4.95;;
4909;SDS011;2470;49.868;8.660;2023-06-22T04:14:17;7.18;;;5.32;;
4909;SDS011;2470;49.868;8.660;2023-06-22T04:16:42;9.45;;;4.63;;
4909;SDS011;2470;49.868;8.660;2023-06-22T04:19:08;8.82;;;4.93;;
4909;SDS011;2470;49.868;8.660;2023-06-22T04:21:39;7.45;;;5.40;;
4909;SDS011;2470;49.868;8.660;2023-06-22T04:24:04;9.65;;;5.47;;
4909;SDS011;2470;49.868;8.660;2023-06-22T04:26:30;8.85;;;5.30;;
4909;SDS011;2470;49.868;8.660;2023-06-22T04:28:55;8.27;;;5.63;;
4909;SDS011;2470;49.868;8.660;2023-06-22T04:31:21;6.25;;;4.75;;
4909;SDS011;2470;49.868;8.660;2023-06-22T04:33:47;9.65;;;4.75;;
4909;SDS011;2470;49.868;8.660;2023-06-22T04:36:12;7.88;;;5.07;;
4909;SDS011;2470;49.868;8.660;2023-06-22T04:38:40;7.70;;;5.18;;
4909;SDS011;2470;49.868;8.660;2023-06-22T04:41:07;6.40;;;4.72;;
4909;SDS011;2470;49.868;8.660;2023-06-22T04:43:34;7.18;;;4.75;;
4909;SDS011;2470;49.868;8.660;2023-06-22T04:46:00;7.13;;;5.68;;
4909;SDS011;2470;49.868;8.660;2023-06-22T04:48:29;6.85;;;4.75;;
4909;SDS011;2470;49.868;8.660;2023-06-22T04:50:58;10.98;;;5.40;;
4909;SDS011;2470;49.868;8.660;2023-06-22T04:53:28;8.18;;;5.50;;
4909;SDS011;2470;49.868;8.660;2023-06-22T04:55:54;7.45;;;5.35;;
4909;SDS011;2470;49.868;8.660;2023-06-22T04:58:20;8.43;;;5.40;;
4909;SDS011;2470;49.868;8.660;2023-06-22T05:00:46;7.65;;;5.80;;
4909;SDS011;2470;49.868;8.660;2023-06-22T05:03:12;7.07;;;4.82;;
4909;SDS011;2470;49.868;8.660;2023-06-22T05:05:38;8.65;;;5.20;;
4909;SDS011;2470;49.868;8.660;2023-06-22T05:08:03;8.38;;;5.55;;
4909;SDS011;2470;49.868;8.660;2023-06-22T05:10:31;9.15;;;5.88;;
4909;SDS011;2470;49.868;8.660;2023-06-22T05:13:00;12.68;;;6.35;;
4909;SDS011;2470;49.868;8.660;2023-06-22T05:15:25;9.52;;;6.13;;
4909;SDS011;2470;49.868;8.660;2023-06-22T05:17:55;7.65;;;5.75;;
4909;SDS011;2470;49.868;8.660;2023-06-22T05:20:21;8.95;;;5.30;;
4909;SDS011;2470;49.868;8.660;2023-06-22T05:22:46;7.88;;;5.55;;
4909;SDS011;2470;49.868;8.660;2023-06-22T05:25:12;8.07;;;5.47;;
4909;SDS011;2470;49.868;8.660;2023-06-22T05:27:38;8.73;;;6.28;;
4909;SDS011;2470;49.868;8.660;2023-06-22T05:30:07;7.25;;;4.95;;
4909;SDS011;2470;49.868;8.660;2023-06-22T05:32:34;8.68;;;6.03;;
4909;SDS011;2470;49.868;8.660;2023-06-22T05:35:00;9.82;;;6.43;;
4909;SDS011;2470;49.868;8.660;2023-06-22T05:37:25;7.28;;;5.72;;
4909;SDS011;2470;49.868;8.660;2023-06-22T05:39:51;6.68;;;5.00;;
4909;SDS011;2470;49.868;8.660;2023-06-22T05:42:17;8.65;;;5.28;;
4909;SDS011;2470;49.868;8.660;2023-06-22T05:44:42;6.93;;;4.40;;
4909;SDS011;2470;49.868;8.660;2023-06-22T05:47:08;6.80;;;4.85;;
4909;SDS011;2470;49.868;8.660;2023-06-22T05:49:33;9.75;;;4.78;;
4909;SDS011;2470;49.868;8.660;2023-06-22T05:51:59;5.97;;;5.00;;
4909;SDS011;2470;49.868;8.660;2023-06-22T05:54:25;5.78;;;4.72;;
4909;SDS011;2470;49.868;8.660;2023-06-22T05:56:52;9.02;;;5.38;;
4909;SDS011;2470;49.868;8.660;2023-06-22T05:59:17;9.10;;;5.47;;
4909;SDS011;2470;49.868;8.660;2023-06-22T06:01:43;6.80;;;4.63;;
4909;SDS011;2470;49.868;8.660;2023-06-22T06:04:08;9.88;;;5.20;;
4909;SDS011;2470;49.868;8.660;2023-06-22T06:06:34;9.18;;;6.15;;
4909;SDS011;2470;49.868;8.660;2023-06-22T06:09:02;6.70;;;4.90;;
4909;SDS011;2470;49.868;8.660;2023-06-22T06:11:28;9.27;;;5.88;;
4909;SDS011;2470;49.868;8.660;2023-06-22T06:13:54;7.85;;;5.22;;
4909;SDS011;2470;49.868;8.660;2023-06-22T06:16:19;10.23;;;5.07;;
4909;SDS011;2470;49.868;8.660;2023-06-22T06:18:45;8.98;;;5.03;;
4909;SDS011;2470;49.868;8.660;2023-06-22T06:21:10;7.32;;;4.85;;
4909;SDS011;2470;49.868;8.660;2023-06-22T06:23:36;7.40;;;5.07;;
4909;SDS011;2470;49.868;8.660;2023-06-22T06:26:01;8.90;;;4.45;;
4909;SDS011;2470;49.868;8.660;2023-06-22T06:28:27;8.25;;;4.97;;
4909;SDS011;2470;49.868;8.660;2023-06-22T06:30:52;6.22;;;4.80;;
4909;SDS011;2470;49.868;8.660;2023-06-22T06:33:18;7.65;;;5.07;;
4909;SDS011;2470;49.868;8.660;2023-06-22T06:35:45;6.40;;;4.43;;
4909;SDS011;2470;49.868;8.660;2023-06-22T06:38:11;8.77;;;5.78;;
4909;SDS011;2470;49.868;8.660;2023-06-22T06:40:36;6.50;;;4.35;;
4909;SDS011;2470;49.868;8.660;2023-06-22T06:43:02;6.05;;;4.63;;
4909;SDS011;2470;49.868;8.660;2023-06-22T06:45:27;7.85;;;5.10;;
4909;SDS011;2470;49.868;8.660;2023-06-22T06:47:54;7.18;;;5.40;;
4909;SDS011;2470;49.868;8.660;2023-06-22T06:50:19;6.45;;;4.57;;
4909;SDS011;2470;49.868;8.660;2023-06-22T06:52:45;8.50;;;5.13;;
4909;SDS011;2470;49.868;8.660;2023-06-22T06:55:10;6.50;;;4.50;;
4909;SDS011;2470;49.868;8.660;2023-06-22T06:57:37;5.25;;;4.45;;
4909;SDS011;2470;49.868;8.660;2023-06-22T07:00:04;7.80;;;5.32;;
4909;SDS011;2470;49.868;8.660;2023-06-22T07:02:34;6.38;;;5.18;;
4909;SDS011;2470;49.868;8.660;2023-06-22T07:05:00;6.85;;;4.88;;
4909;SDS011;2470;49.868;8.660;2023-06-22T07:07:29;6.22;;;4.60;;
4909;SDS011;2470;49.868;8.660;2023-06-22T07:09:54;5.68;;;3.97;;
4909;SDS011;2470;49.868;8.660;2023-06-22T07:12:20;6.82;;;4.55;;
4909;SDS011;2470;49.868;8.660;2023-06-22T07:14:46;8.13;;;4.03;;
4909;SDS011;2470;49.868;8.660;2023-06-22T07:17:11;9.00;;;4.60;;
4909;SDS011;2470;49.868;8.660;2023-06-22T07:19:37;6.75;;;4.72;;
4909;SDS011;2470;49.868;8.660;2023-06-22T07:22:02;5.35;;;4.03;;
4909;SDS011;2470;49.868;8.660;2023-06-22T07:24:28;6.22;;;4.80;;
4909;SDS011;2470;49.868;8.660;2023-06-22T07:26:53;6.80;;;5.25;;
4909;SDS011;2470;49.868;8.660;2023-06-22T07:29:20;6.60;;;4.53;;
4909;SDS011;2470;49.868;8.660;2023-06-22T07:31:46;5.80;;;4.45;;
4909;SDS011;2470;49.868;8.660;2023-06-22T07:34:12;7.38;;;4.97;;
4909;SDS011;2470;49.868;8.660;2023-06-22T07:36:38;6.40;;;4.40;;
4909;SDS011;2470;49.868;8.660;2023-06-22T07:39:03;9.90;;;5.32;;
4909;SDS011;2470;49.868;8.660;2023-06-22T07:41:30;6.00;;;4.28;;
4909;SDS011;2470;49.868;8.660;2023-06-22T07:43:55;7.15;;;5.13;;
4909;SDS011;2470;49.868;8.660;2023-06-22T07:46:21;5.32;;;4.43;;
4909;SDS011;2470;49.868;8.660;2023-06-22T07:48:47;7.72;;;5.43;;
4909;SDS011;2470;49.868;8.660;2023-06-22T07:51:13;8.45;;;5.15;;
4909;SDS011;2470;49.868;8.660;2023-06-22T07:53:39;6.43;;;5.00;;
4909;SDS011;2470;49.868;8.660;2023-06-22T07:56:12;7.15;;;5.22;;
4909;SDS011;2470;49.868;8.660;2023-06-22T07:58:38;6.40;;;4.75;;
4909;SDS011;2470;49.868;8.660;2023-06-22T08:01:03;7.55;;;5.07;;
4909;SDS011;2470;49.868;8.660;2023-06-22T08:03:29;6.13;;;4.55;;
4909;SDS011;2470;49.868;8.660;2023-06-22T08:05:55;6.03;;;3.90;;
4909;SDS011;2470;49.868;8.660;2023-06-22T08:08:21;7.63;;;5.30;;
4909;SDS011;2470;49.868;8.660;2023-06-22T08:10:46;13.88;;;5.00;;
4909;SDS011;2470;49.868;8.660;2023-06-22T08:13:12;6.95;;;4.93;;
4909;SDS011;2470;49.868;8.660;2023-06-22T08:15:37;7.78;;;5.47;;
4909;SDS011;2470;49.868;8.660;2023-06-22T08:18:03;7.78;;;4.40;;
4909;SDS011;2470;49.868;8.660;2023-06-22T08:20:28;7.35;;;4.95;;
4909;SDS011;2470;49.868;8.660;2023-06-22T08:22:55;6.38;;;5.07;;
4909;SDS011;2470;49.868;8.660;2023-06-22T08:25:22;10.25;;;5.00;;
4909;SDS011;2470;49.868;8.660;2023-06-22T08:27:48;16.45;;;4.50;;
4909;SDS011;2470;49.868;8.660;2023-06-22T08:30:14;4.80;;;4.28;;
4909;SDS011;2470;49.868;8.660;2023-06-22T08:32:40;5.28;;;4.47;;
4909;SDS011;2470;49.868;8.660;2023-06-22T08:35:06;5.78;;;4.20;;
4909;SDS011;2470;49.868;8.660;2023-06-22T08:37:34;8.93;;;4.68;;
4909;SDS011;2470;49.868;8.660;2023-06-22T08:40:00;8.27;;;4.93;;
4909;SDS011;2470;49.868;8.660;2023-06-22T08:42:29;4.82;;;4.20;;
4909;SDS011;2470;49.868;8.660;2023-06-22T08:44:55;7.35;;;4.47;;
4909;SDS011;2470;49.868;8.660;2023-06-22T08:47:20;8.32;;;4.35;;
4909;SDS011;2470;49.868;8.660;2023-06-22T08:49:46;6.72;;;4.53;;
4909;SDS011;2470;49.868;8.660;2023-06-22T08:52:12;5.35;;;4.57;;
4909;SDS011;2470;49.868;8.660;2023-06-22T08:54:37;6.45;;;4.20;;
4909;SDS011;2470;49.868;8.660;2023-06-22T08:57:03;5.60;;;4.35;;
4909;SDS011;2470;49.868;8.660;2023-06-22T08:59:29;5.93;;;3.92;;
4909;SDS011;2470;49.868;8.660;2023-06-22T09:01:54;8.55;;;4.45;;
4909;SDS011;2470;49.868;8.660;2023-06-22T09:04:20;4.25;;;3.33;;
4909;SDS011;2470;49.868;8.660;2023-06-22T09:06:48;4.40;;;3.78;;
4909;SDS011;2470;49.868;8.660;2023-06-22T09:09:15;6.95;;;4.40;;
4909;SDS011;2470;49.868;8.660;2023-06-22T09:11:41;4.18;;;3.70;;
4909;SDS011;2470;49.868;8.660;2023-06-22T09:14:07;5.50;;;3.92;;
4909;SDS011;2470;49.868;8.660;2023-06-22T09:16:32;5.57;;;4.32;;
4909;SDS011;2470;49.868;8.660;2023-06-22T09:18:58;5.05;;;4.18;;
4909;SDS011;2470;49.868;8.660;2023-06-22T09:21:24;6.95;;;4.10;;
4909;SDS011;2470;49.868;8.660;2023-06-22T09:23:49;5.25;;;4.38;;
4909;SDS011;2470;49.868;8.660;2023-06-22T09:26:16;5.05;;;3.75;;
4909;SDS011;2470;49.868;8.660;2023-06-22T09:28:42;7.38;;;4.32;;
4909;SDS011;2470;49.868;8.660;2023-06-22T09:31:08;5.60;;;4.22;;
4909;SDS011;2470;49.868;8.660;2023-06-22T09:33:33;6.80;;;4.45;;
4909;SDS011;2470;49.868;8.660;2023-06-22T09:36:00;5.15;;;3.70;;
4909;SDS011;2470;49.868;8.660;2023-06-22T09:38:25;4.95;;;3.67;;
4909;SDS011;2470;49.868;8.660;2023-06-22T09:40:51;4.80;;;4.03;;
4909;SDS011;2470;49.868;8.660;2023-06-22T09:43:16;6.07;;;3.50;;
4909;SDS011;2470;49.868;8.660;2023-06-22T09:45:42;4.72;;;3.60;;
4909;SDS011;2470;49.868;8.660;2023-06-22T09:48:07;4.90;;;4.20;;
4909;SDS011;2470;49.868;8.660;2023-06-22T09:50:34;6.50;;;4.15;;
4909;SDS011;2470;49.868;8.660;2023-06-22T09:53:00;3.85;;;3.42;;
4909;SDS011;2470;49.868;8.660;2023-06-22T09:55:25;4.40;;;3.75;;
4909;SDS011;2470;49.868;8.660;2023-06-22T09:57:51;4.13;;;3.38;;
4909;SDS011;2470;49.868;8.660;2023-06-22T10:00:17;4.55;;;4.00;;
4909;SDS011;2470;49.868;8.660;2023-06-22T10:02:44;4.65;;;3.83;;
4909;SDS011;2470;49.868;8.660;2023-06-22T10:05:10;4.72;;;4.03;;
4909;SDS011;2470;49.868;8.660;2023-06-22T10:07:35;6.03;;;4.30;;
4909;SDS011;2470;49.868;8.660;2023-06-22T10:10:07;5.40;;;4.00;;
4909;SDS011;2470;49.868;8.660;2023-06-22T10:12:33;5.53;;;3.30;;
4909;SDS011;2470;49.868;8.660;2023-06-22T10:14:59;9.57;;;3.78;;
4909;SDS011;2470;49.868;8.660;2023-06-22T10:17:24;3.78;;;3.30;;
4909;SDS011;2470;49.868;8.660;2023-06-22T10:19:50;4.40;;;3.72;;
4909;SDS011;2470;49.868;8.660;2023-06-22T10:22:15;4.40;;;3.83;;
4909;SDS011;2470;49.868;8.660;2023-06-22T10:24:41;5.40;;;3.80;;
4909;SDS011;2470;49.868;8.660;2023-06-22T10:27:10;6.60;;;3.13;;
4909;SDS011;2470;49.868;8.660;2023-06-22T10:29:36;5.75;;;3.60;;
4909;SDS011;2470;49.868;8.660;2023-06-22T10:32:02;5.60;;;4.13;;
4909;SDS011;2470;49.868;8.660;2023-06-22T10:34:28;7.40;;;4.50;;
4909;SDS011;2470;49.868;8.660;2023-06-22T10:36:53;6.25;;;4.13;;
4909;SDS011;2470;49.868;8.660;2023-06-22T10:39:19;5.28;;;3.90;;
4909;SDS011;2470;49.868;8.660;2023-06-22T10:41:44;4.78;;;3.83;;
4909;SDS011;2470;49.868;8.660;2023-06-22T10:44:10;6.85;;;4.03;;
4909;SDS011;2470;49.868;8.660;2023-06-22T10:46:35;4.85;;;3.95;;
4909;SDS011;2470;49.868;8.660;2023-06-22T10:49:01;9.95;;;4.43;;
4909;SDS011;2470;49.868;8.660;2023-06-22T10:51:26;5.15;;;3.70;;
4909;SDS011;2470;49.868;8.660;2023-06-22T10:53:53;4.40;;;3.50;;
4909;SDS011;2470;49.868;8.660;2023-06-22T10:56:18;5.70;;;3.55;;
4909;SDS011;2470;49.868;8.660;2023-06-22T10:58:44;4.43;;;3.72;;
4909;SDS011;2470;49.868;8.660;2023-06-22T11:01:10;3.92;;;3.60;;
4909;SDS011;2470;49.868;8.660;2023-06-22T11:03:36;4.63;;;3.65;;
4909;SDS011;2470;49.868;8.660;2023-06-22T11:06:01;5.88;;;4.40;;
4909;SDS011;2470;49.868;8.660;2023-06-22T11:08:27;4.85;;;3.70;;
4909;SDS011;2470;49.868;8.660;2023-06-22T11:10:53;5.07;;;4.13;;
4909;SDS011;2470;49.868;8.660;2023-06-22T11:13:18;5.75;;;4.22;;
4909;SDS011;2470;49.868;8.660;2023-06-22T11:15:44;4.43;;;4.03;;
4909;SDS011;2470;49.868;8.660;2023-06-22T11:18:09;4.78;;;3.72;;
4909;SDS011;2470;49.868;8.660;2023-06-22T11:20:35;10.30;;;4.43;;
4909;SDS011;2470;49.868;8.660;2023-06-22T11:23:04;4.93;;;3.90;;
4909;SDS011;2470;49.868;8.660;2023-06-22T11:25:31;4.20;;;3.72;;
4909;SDS011;2470;49.868;8.660;2023-06-22T11:27:57;3.97;;;3.60;;
4909;SDS011;2470;49.868;8.660;2023-06-22T11:30:22;4.05;;;3.67;;
4909;SDS011;2470;49.868;8.660;2023-06-22T11:32:48;8.40;;;3.55;;
4909;SDS011;2470;49.868;8.660;2023-06-22T11:35:13;4.40;;;3.83;;
4909;SDS011;2470;49.868;8.660;2023-06-22T11:37:39;4.50;;;3.70;;
4909;SDS011;2470;49.868;8.660;2023-06-22T11:40:05;4.32;;;3.70;;
4909;SDS011;2470;49.868;8.660;2023-06-22T11:42:33;5.07;;;3.95;;
4909;SDS011;2470;49.868;8.660;2023-06-22T11:44:59;5.47;;;4.07;;
4909;SDS011;2470;49.868;8.660;2023-06-22T11:47:25;3.25;;;2.95;;
4909;SDS011;2470;49.868;8.660;2023-06-22T11:49:50;6.13;;;3.42;;
4909;SDS011;2470;49.868;8.660;2023-06-22T11:52:16;4.95;;;3.53;;
4909;SDS011;2470;49.868;8.660;2023-06-22T11:54:42;4.60;;;3.72;;
4909;SDS011;2470;49.868;8.660;2023-06-22T11:57:08;4.68;;;3.25;;
4909;SDS011;2470;49.868;8.660;2023-06-22T11:59:33;6.47;;;3.88;;
4909;SDS011;2470;49.868;8.660;2023-06-22T12:01:59;4.80;;;3.70;;
4909;SDS011;2470;49.868;8.660;2023-06-22T12:04:25;4.00;;;3.58;;
4909;SDS011;2470;49.868;8.660;2023-06-22T12:06:50;7.18;;;3.72;;
4909;SDS011;2470;49.868;8.660;2023-06-22T12:09:16;6.78;;;3.97;;
4909;SDS011;2470;49.868;8.660;2023-06-22T12:11:41;3.35;;;3.08;;
4909;SDS011;2470;49.868;8.660;2023-06-22T12:14:07;6.00;;;3.30;;
4909;SDS011;2470;49.868;8.660;2023-06-22T12:16:32;5.60;;;3.58;;
4909;SDS011;2470;49.868;8.660;2023-06-22T12:18:58;4.80;;;3.70;;
4909;SDS011;2470;49.868;8.660;2023-06-22T12:21:23;5.00;;;3.40;;
4909;SDS011;2470;49.868;8.660;2023-06-22T12:23:49;4.78;;;3.35;;
4909;SDS011;2470;49.868;8.660;2023-06-22T12:26:14;5.93;;;3.50;;
4909;SDS011;2470;49.868;8.660;2023-06-22T12:28:40;4.80;;;3.70;;
4909;SDS011;2470;49.868;8.660;2023-06-22T12:31:05;3.67;;;3.20;;
4909;SDS011;2470;49.868;8.660;2023-06-22T12:33:31;4.35;;;3.75;;
4909;SDS011;2470;49.868;8.660;2023-06-22T12:35:56;6.05;;;3.58;;
4909;SDS011;2470;49.868;8.660;2023-06-22T12:38:22;4.93;;;3.53;;
4909;SDS011;2470;49.868;8.660;2023-06-22T12:40:49;5.20;;;3.65;;
4909;SDS011;2470;49.868;8.660;2023-06-22T12:43:15;4.55;;;3.55;;
4909;SDS011;2470;49.868;8.660;2023-06-22T12:45:40;5.10;;;3.38;;
4909;SDS011;2470;49.868;8.660;2023-06-22T12:48:06;4.60;;;3.63;;
4909;SDS011;2470;49.868;8.660;2023-06-22T12:50:31;4.20;;;3.10;;
4909;SDS011;2470;49.868;8.660;2023-06-22T12:52:57;4.50;;;3.25;;
4909;SDS011;2470;49.868;8.660;2023-06-22T12:55:22;3.20;;;2.90;;
4909;SDS011;2470;49.868;8.660;2023-06-22T12:57:48;4.05;;;3.10;;
4909;SDS011;2470;49.868;8.660;2023-06-22T13:00:14;2.95;;;2.50;;
4909;SDS011;2470;49.868;8.660;2023-06-22T13:02:40;3.95;;;3.00;;
4909;SDS011;2470;49.868;8.660;2023-06-22T13:05:05;3.45;;;3.05;;
4909;SDS011;2470;49.868;8.660;2023-06-22T13:07:31;4.88;;;3.05;;
4909;SDS011;2470;49.868;8.660;2023-06-22T13:09:57;3.17;;;2.80;;
4909;SDS011;2470;49.868;8.660;2023-06-22T13:12:22;2.80;;;2.60;;
4909;SDS011;2470;49.868;8.660;2023-06-22T13:14:48;2.80;;;2.60;;
4909;SDS011;2470;49.868;8.660;2023-06-22T13:17:14;2.83;;;2.63;;
4909;SDS011;2470;49.868;8.660;2023-06-22T13:19:40;3.90;;;2.47;;
4909;SDS011;2470;49.868;8.660;2023-06-22T13:22:09;2.72;;;2.53;;
4909;SDS011;2470;49.868;8.660;2023-06-22T13:24:58;1.95;;;1.85;;
4909;SDS011;2470;49.868;8.660;2023-06-22T13:27:24;3.20;;;2.10;;
4909;SDS011;2470;49.868;8.660;2023-06-22T13:29:50;2.42;;;2.25;;
4909;SDS011;2470;49.868;8.660;2023-06-22T13:32:15;2.22;;;2.00;;
4909;SDS011;2470;49.868;8.660;2023-06-22T13:34:41;3.03;;;1.92;;
4909;SDS011;2470;49.868;8.660;2023-06-22T13:37:07;2.90;;;1.80;;
4909;SDS011;2470;49.868;8.660;2023-06-22T13:39:33;2.55;;;1.75;;
4909;SDS011;2470;49.868;8.660;2023-06-22T13:41:58;2.10;;;1.90;;
4909;SDS011;2470;49.868;8.660;2023-06-22T13:44:24;2.17;;;1.98;;
4909;SDS011;2470;49.868;8.660;2023-06-22T13:46:53;3.13;;;2.22;;
4909;SDS011;2470;49.868;8.660;2023-06-22T13:49:19;3.05;;;2.03;;
4909;SDS011;2470;49.868;8.660;2023-06-22T13:51:45;4.30;;;1.75;;
4909;SDS011;2470;49.868;8.660;2023-06-22T13:54:13;4.20;;;2.03;;
4909;SDS011;2470;49.868;8.660;2023-06-22T13:56:38;2.42;;;1.90;;
4909;SDS011;2470;49.868;8.660;2023-06-22T13:59:04;3.50;;;2.13;;
4909;SDS011;2470;49.868;8.660;2023-06-22T14:01:29;1.60;;;1.58;;
4909;SDS011;2470;49.868;8.660;2023-06-22T14:03:55;3.58;;;1.30;;
4909;SDS011;2470;49.868;8.660;2023-06-22T14:06:20;3.50;;;1.77;;
4909;SDS011;2470;49.868;8.660;2023-06-22T14:08:46;1.85;;;1.75;;
4909;SDS011;2470;49.868;8.660;2023-06-22T14:11:11;3.80;;;1.73;;
4909;SDS011;2470;49.868;8.660;2023-06-22T14:13:37;2.78;;;1.50;;
4909;SDS011;2470;49.868;8.660;2023-06-22T14:16:03;4.55;;;1.77;;
4909;SDS011;2470;49.868;8.660;2023-06-22T14:18:29;7.38;;;2.45;;
4909;SDS011;2470;49.868;8.660;2023-06-22T14:20:55;1.73;;;1.63;;
4909;SDS011;2470;49.868;8.660;2023-06-22T14:23:20;2.55;;;1.90;;
4909;SDS011;2470;49.868;8.660;2023-06-22T14:25:46;2.00;;;1.90;;
4909;SDS011;2470;49.868;8.660;2023-06-22T14:28:11;4.00;;;1.80;;
4909;SDS011;2470;49.868;8.660;2023-06-22T14:30:37;3.53;;;1.90;;
4909;SDS011;2470;49.868;8.660;2023-06-22T14:33:02;1.50;;;1.40;;
4909;SDS011;2470;49.868;8.660;2023-06-22T14:35:28;2.13;;;1.98;;
4909;SDS011;2470;49.868;8.660;2023-06-22T14:37:53;3.70;;;1.63;;
4909;SDS011;2470;49.868;8.660;2023-06-22T14:40:19;2.67;;;1.80;;
4909;SDS011;2470;49.868;8.660;2023-06-22T14:42:44;2.08;;;1.70;;
4909;SDS011;2470;49.868;8.660;2023-06-22T14:45:10;2.03;;;1.65;;
4909;SDS011;2470;49.868;8.660;2023-06-22T14:47:35;1.80;;;1.40;;
4909;SDS011;2470;49.868;8.660;2023-06-22T14:50:01;2.85;;;1.25;;
4909;SDS011;2470;49.868;8.660;2023-06-22T14:52:26;1.90;;;1.80;;
4909;SDS011;2470;49.868;8.660;2023-06-22T14:54:52;1.85;;;1.75;;
4909;SDS011;2470;49.868;8.660;2023-06-22T14:57:18;2.00;;;1.85;;
4909;SDS011;2470;49.868;8.660;2023-06-22T14:59:45;2.10;;;1.95;;
4909;SDS011;2470;49.868;8.660;2023-06-22T15:02:12;4.10;;;2.20;;
4909;SDS011;2470;49.868;8.660;2023-06-22T15:04:38;4.18;;;2.55;;
4909;SDS011;2470;49.868;8.660;2023-06-22T15:07:03;2.53;;;1.95;;
4909;SDS011;2470;49.868;8.660;2023-06-22T15:09:29;2.45;;;1.88;;
4909;SDS011;2470;49.868;8.660;2023-06-22T15:11:54;1.75;;;1.65;;
4909;SDS011;2470;49.868;8.660;2023-06-22T15:14:20;1.98;;;1.60;;
4909;SDS011;2470;49.868;8.660;2023-06-22T15:16:45;4.05;;;2.00;;